sensor_id;sensor_type;location;lat;lon;timestamp;pressure;altitude;pressure_sealevel;temperature;humidity
21594;BME280;10959;51.328;7.322;2023-02-03T00:00:19;99568.06;;;9.50;92.03
21594;BME280;10959;51.328;7.322;2023-02-03T00:02:45;99560.03;;;9.48;91.19
21594;BME280;10959;51.328;7.322;2023-02-03T00:05:12;99570.69;;;9.51;91.29
21594;BME280;10959;51.328;7.322;2023-02-03T00:07:39;99554.66;;;9.48;91.59
21594;BME280;10959;51.328;7.322;2023-02-03T00:10:10;99536.69;;;9.50;91.49
21594;BME280;10959;51.328;7.322;2023-02-03T00:12:36;99518.91;;;9.46;91.27
21594;BME280;10959;51.328;7.322;2023-02-03T00:15:04;99529.66;;;9.46;91.31
21594;BME280;10959;51.328;7.322;2023-02-03T00:17:30;99529.56;;;9.49;91.17
21594;BME280;10959;51.328;7.322;2023-02-03T00:19:57;99530.34;;;9.53;90.73
21594;BME280;10959;51.328;7.322;2023-02-03T00:22:23;99531.22;;;9.54;90.83
21594;BME280;10959;51.328;7.322;2023-02-03T00:24:49;99525.22;;;9.45;90.78
21594;BME280;10959;51.328;7.322;2023-02-03T00:27:17;99525.94;;;9.50;90.79
21594;BME280;10959;51.328;7.322;2023-02-03T00:29:44;99528.53;;;9.54;91.11
21594;BME280;10959;51.328;7.322;2023-02-03T00:32:10;99529.44;;;9.52;90.74
21594;BME280;10959;51.328;7.322;2023-02-03T00:34:36;99521.91;;;9.64;90.85
21594;BME280;10959;51.328;7.322;2023-02-03T00:37:03;99530.81;;;9.66;90.25
21594;BME280;10959;51.328;7.322;2023-02-03T00:39:29;99518.06;;;9.71;90.20
21594;BME280;10959;51.328;7.322;2023-02-03T00:41:56;99523.66;;;9.65;90.47
21594;BME280;10959;51.328;7.322;2023-02-03T00:44:24;99515.53;;;9.66;90.53
21594;BME280;10959;51.328;7.322;2023-02-03T00:46:50;99515.53;;;9.66;90.18
21594;BME280;10959;51.328;7.322;2023-02-03T00:49:17;99516.47;;;9.65;90.55
21594;BME280;10959;51.328;7.322;2023-02-03T00:51:43;99514.66;;;9.66;90.33
21594;BME280;10959;51.328;7.322;2023-02-03T00:54:09;99519.19;;;9.64;90.09
21594;BME280;10959;51.328;7.322;2023-02-03T00:56:37;99523.56;;;9.68;90.29
21594;BME280;10959;51.328;7.322;2023-02-03T00:59:04;99518.16;;;9.68;90.49
21594;BME280;10959;51.328;7.322;2023-02-03T01:01:32;99519.03;;;9.68;89.78
21594;BME280;10959;51.328;7.322;2023-02-03T01:03:58;99520.06;;;9.66;90.02
21594;BME280;10959;51.328;7.322;2023-02-03T01:06:26;99531.63;;;9.68;89.84
21594;BME280;10959;51.328;7.322;2023-02-03T01:08:53;99543.41;;;9.64;90.00
21594;BME280;10959;51.328;7.322;2023-02-03T01:11:21;99552.50;;;9.60;90.05
21594;BME280;10959;51.328;7.322;2023-02-03T01:13:49;99548.09;;;9.57;90.04
21594;BME280;10959;51.328;7.322;2023-02-03T01:16:16;99552.50;;;9.60;90.19
21594;BME280;10959;51.328;7.322;2023-02-03T01:18:45;99559.81;;;9.56;90.39
21594;BME280;10959;51.328;7.322;2023-02-03T01:21:14;99565.25;;;9.55;90.31
21594;BME280;10959;51.328;7.322;2023-02-03T01:23:41;99582.06;;;9.60;90.29
21594;BME280;10959;51.328;7.322;2023-02-03T01:26:10;99588.91;;;9.43;90.46
21594;BME280;10959;51.328;7.322;2023-02-03T01:28:37;99586.94;;;9.48;90.80
21594;BME280;10959;51.328;7.322;2023-02-03T01:31:11;99571.22;;;9.36;90.35
21594;BME280;10959;51.328;7.322;2023-02-03T01:33:39;99568.84;;;9.54;90.44
21594;BME280;10959;51.328;7.322;2023-02-03T01:36:07;99559.66;;;9.61;90.43
21594;BME280;10959;51.328;7.322;2023-02-03T01:38:34;99558.78;;;9.60;90.68
21594;BME280;10959;51.328;7.322;2023-02-03T01:41:01;99557.06;;;9.58;90.76
21594;BME280;10959;51.328;7.322;2023-02-03T01:43:29;99561.31;;;9.65;89.80
21594;BME280;10959;51.328;7.322;2023-02-03T01:45:56;99583.09;;;9.56;90.37
21594;BME280;10959;51.328;7.322;2023-02-03T01:48:22;99584.13;;;9.51;90.93
21594;BME280;10959;51.328;7.322;2023-02-03T01:50:49;99584.06;;;9.55;90.48
21594;BME280;10959;51.328;7.322;2023-02-03T01:53:17;99586.53;;;9.61;90.22
21594;BME280;10959;51.328;7.322;2023-02-03T01:55:46;99577.63;;;9.59;90.05
21594;BME280;10959;51.328;7.322;2023-02-03T01:58:17;99557.22;;;9.53;89.86
21594;BME280;10959;51.328;7.322;2023-02-03T02:00:46;99552.63;;;9.57;90.00
21594;BME280;10959;51.328;7.322;2023-02-03T02:03:14;99551.59;;;9.61;90.19
21594;BME280;10959;51.328;7.322;2023-02-03T02:05:45;99549.00;;;9.58;89.99
21594;BME280;10959;51.328;7.322;2023-02-03T02:08:14;99568.63;;;9.60;90.17
21594;BME280;10959;51.328;7.322;2023-02-03T02:10:43;99559.53;;;9.64;89.71
21594;BME280;10959;51.328;7.322;2023-02-03T02:13:11;99581.75;;;9.42;89.51
21594;BME280;10959;51.328;7.322;2023-02-03T02:15:43;99568.44;;;9.39;90.07
21594;BME280;10959;51.328;7.322;2023-02-03T02:18:23;99558.00;;;9.28;89.63
21594;BME280;10959;51.328;7.322;2023-02-03T02:21:08;99540.69;;;9.37;89.99
21594;BME280;10959;51.328;7.322;2023-02-03T02:26:49;99529.25;;;9.32;89.43
21594;BME280;10959;51.328;7.322;2023-02-03T02:32:21;99518.81;;;9.49;89.34
21594;BME280;10959;51.328;7.322;2023-02-03T02:34:58;99515.06;;;9.54;88.74
21594;BME280;10959;51.328;7.322;2023-02-03T02:37:36;99497.50;;;9.43;88.75
21594;BME280;10959;51.328;7.322;2023-02-03T02:40:10;99501.00;;;9.45;88.71
21594;BME280;10959;51.328;7.322;2023-02-03T02:42:48;99510.84;;;9.46;88.56
21594;BME280;10959;51.328;7.322;2023-02-03T02:45:21;99518.91;;;9.46;89.57
21594;BME280;10959;51.328;7.322;2023-02-03T02:47:52;99524.34;;;9.45;89.52
21594;BME280;10959;51.328;7.322;2023-02-03T02:50:23;99504.63;;;9.44;89.96
21594;BME280;10959;51.328;7.322;2023-02-03T02:52:53;99491.91;;;9.49;90.13
21594;BME280;10959;51.328;7.322;2023-02-03T02:55:24;99513.41;;;9.49;89.52
21594;BME280;10959;51.328;7.322;2023-02-03T02:57:54;99520.56;;;9.50;90.12
21594;BME280;10959;51.328;7.322;2023-02-03T03:00:23;99519.59;;;9.53;89.88
21594;BME280;10959;51.328;7.322;2023-02-03T03:02:49;99491.50;;;9.62;89.97
21594;BME280;10959;51.328;7.322;2023-02-03T03:05:17;99488.09;;;9.57;89.39
21594;BME280;10959;51.328;7.322;2023-02-03T03:07:47;99478.88;;;9.64;89.02
21594;BME280;10959;51.328;7.322;2023-02-03T03:10:20;99478.97;;;9.61;89.35
21594;BME280;10959;51.328;7.322;2023-02-03T03:12:52;99493.34;;;9.60;88.92
21594;BME280;10959;51.328;7.322;2023-02-03T03:15:21;99507.63;;;9.62;89.41
21594;BME280;10959;51.328;7.322;2023-02-03T03:17:53;99529.56;;;9.49;88.99
21594;BME280;10959;51.328;7.322;2023-02-03T03:20:24;99548.34;;;9.23;89.04
21594;BME280;10959;51.328;7.322;2023-02-03T03:22:56;99524.50;;;9.40;89.10
21594;BME280;10959;51.328;7.322;2023-02-03T03:25:29;99531.34;;;9.22;89.11
21594;BME280;10959;51.328;7.322;2023-02-03T03:27:59;99526.34;;;9.38;89.17
21594;BME280;10959;51.328;7.322;2023-02-03T03:30:29;99522.63;;;9.42;89.29
21594;BME280;10959;51.328;7.322;2023-02-03T03:32:58;99528.69;;;9.49;89.24
21594;BME280;10959;51.328;7.322;2023-02-03T03:35:31;99515.38;;;9.44;88.61
21594;BME280;10959;51.328;7.322;2023-02-03T03:38:06;99518.69;;;9.52;88.69
21594;BME280;10959;51.328;7.322;2023-02-03T03:40:37;99518.53;;;9.57;88.77
21594;BME280;10959;51.328;7.322;2023-02-03T03:43:09;99507.94;;;9.52;88.63
21594;BME280;10959;51.328;7.322;2023-02-03T03:45:44;99515.84;;;9.57;88.42
21594;BME280;10959;51.328;7.322;2023-02-03T03:48:15;99517.38;;;9.64;88.26
21594;BME280;10959;51.328;7.322;2023-02-03T03:50:48;99521.03;;;9.63;88.61
21594;BME280;10959;51.328;7.322;2023-02-03T03:53:17;99523.78;;;9.62;88.01
21594;BME280;10959;51.328;7.322;2023-02-03T03:55:48;99518.47;;;9.59;88.07
21594;BME280;10959;51.328;7.322;2023-02-03T03:58:19;99514.16;;;9.55;87.46
21594;BME280;10959;51.328;7.322;2023-02-03T04:00:47;99510.31;;;9.62;88.32
21594;BME280;10959;51.328;7.322;2023-02-03T04:03:15;99501.22;;;9.66;88.28
21594;BME280;10959;51.328;7.322;2023-02-03T04:05:44;99502.84;;;9.70;87.66
21594;BME280;10959;51.328;7.322;2023-02-03T04:08:11;99516.06;;;9.51;87.93
21594;BME280;10959;51.328;7.322;2023-02-03T04:10:38;99519.78;;;9.47;88.15
21594;BME280;10959;51.328;7.322;2023-02-03T04:13:06;99502.78;;;9.46;87.75
21594;BME280;10959;51.328;7.322;2023-02-03T04:15:33;99508.03;;;9.49;88.09
21594;BME280;10959;51.328;7.322;2023-02-03T04:18:00;99509.03;;;9.47;87.64
21594;BME280;10959;51.328;7.322;2023-02-03T04:20:28;99508.72;;;9.56;87.51
21594;BME280;10959;51.328;7.322;2023-02-03T04:22:56;99514.00;;;9.59;87.63
21594;BME280;10959;51.328;7.322;2023-02-03T04:25:24;99500.50;;;9.61;87.30
21594;BME280;10959;51.328;7.322;2023-02-03T04:27:50;99505.66;;;9.67;87.57
21594;BME280;10959;51.328;7.322;2023-02-03T04:30:17;99501.00;;;9.72;87.32
21594;BME280;10959;51.328;7.322;2023-02-03T04:32:44;99492.16;;;9.68;87.43
21594;BME280;10959;51.328;7.322;2023-02-03T04:35:11;99510.03;;;9.69;87.64
21594;BME280;10959;51.328;7.322;2023-02-03T04:37:37;99506.59;;;9.66;87.26
21594;BME280;10959;51.328;7.322;2023-02-03T04:40:07;99511.75;;;9.45;87.27
21594;BME280;10959;51.328;7.322;2023-02-03T04:42:35;99508.16;;;9.46;87.77
21594;BME280;10959;51.328;7.322;2023-02-03T04:45:02;99511.75;;;9.45;87.88
21594;BME280;10959;51.328;7.322;2023-02-03T04:47:28;99506.16;;;9.51;87.45
21594;BME280;10959;51.328;7.322;2023-02-03T04:49:55;99518.22;;;9.40;87.49
21594;BME280;10959;51.328;7.322;2023-02-03T04:52:21;99512.69;;;9.44;87.72
21594;BME280;10959;51.328;7.322;2023-02-03T04:54:48;99491.91;;;9.49;87.67
21594;BME280;10959;51.328;7.322;2023-02-03T04:57:16;99485.00;;;9.42;87.95
21594;BME280;10959;51.328;7.322;2023-02-03T04:59:42;99477.97;;;9.38;87.72
21594;BME280;10959;51.328;7.322;2023-02-03T05:02:09;99478.06;;;9.35;88.38
21594;BME280;10959;51.328;7.322;2023-02-03T05:04:35;99471.84;;;9.33;88.11
21594;BME280;10959;51.328;7.322;2023-02-03T05:07:01;99454.38;;;9.46;87.79
21594;BME280;10959;51.328;7.322;2023-02-03T05:09:28;99456.91;;;9.51;87.57
21594;BME280;10959;51.328;7.322;2023-02-03T05:11:54;99456.41;;;9.40;86.60
21594;BME280;10959;51.328;7.322;2023-02-03T05:14:22;99461.72;;;9.41;87.24
21594;BME280;10959;51.328;7.322;2023-02-03T05:16:49;99460.00;;;9.40;87.80
21594;BME280;10959;51.328;7.322;2023-02-03T05:19:15;99458.00;;;9.45;87.56
21594;BME280;10959;51.328;7.322;2023-02-03T05:21:42;99470.41;;;9.49;87.39
21594;BME280;10959;51.328;7.322;2023-02-03T05:24:08;99468.44;;;9.55;87.47
21594;BME280;10959;51.328;7.322;2023-02-03T05:26:35;99460.34;;;9.56;87.35
21594;BME280;10959;51.328;7.322;2023-02-03T05:29:01;99461.09;;;9.60;87.17
21594;BME280;10959;51.328;7.322;2023-02-03T05:31:29;99464.06;;;9.52;86.84
21594;BME280;10959;51.328;7.322;2023-02-03T05:33:57;99469.31;;;9.55;87.11
21594;BME280;10959;51.328;7.322;2023-02-03T05:36:24;99474.75;;;9.54;87.04
21594;BME280;10959;51.328;7.322;2023-02-03T05:38:50;99473.91;;;9.51;87.21
21594;BME280;10959;51.328;7.322;2023-02-03T05:41:17;99481.06;;;9.52;87.27
21594;BME280;10959;51.328;7.322;2023-02-03T05:44:01;99464.06;;;9.52;87.30
21594;BME280;10959;51.328;7.322;2023-02-03T05:46:28;99455.50;;;9.66;87.16
21594;BME280;10959;51.328;7.322;2023-02-03T05:48:55;99464.28;;;9.71;87.03
21594;BME280;10959;51.328;7.322;2023-02-03T05:51:21;99484.25;;;9.64;86.17
21594;BME280;10959;51.328;7.322;2023-02-03T05:53:49;99471.84;;;9.60;86.59
21594;BME280;10959;51.328;7.322;2023-02-03T05:56:15;99457.88;;;9.48;86.20
21594;BME280;10959;51.328;7.322;2023-02-03T05:58:41;99469.25;;;9.57;86.75
21594;BME280;10959;51.328;7.322;2023-02-03T06:01:08;99469.25;;;9.57;86.49
21594;BME280;10959;51.328;7.322;2023-02-03T06:03:37;99465.66;;;9.58;86.17
21594;BME280;10959;51.328;7.322;2023-02-03T06:06:03;99466.41;;;9.61;86.37
21594;BME280;10959;51.328;7.322;2023-02-03T06:08:30;99468.44;;;9.55;87.13
21594;BME280;10959;51.328;7.322;2023-02-03T06:10:57;99480.81;;;9.59;86.97
21594;BME280;10959;51.328;7.322;2023-02-03T06:13:24;99456.00;;;9.52;86.81
21594;BME280;10959;51.328;7.322;2023-02-03T06:15:51;99468.22;;;9.61;87.07
21594;BME280;10959;51.328;7.322;2023-02-03T06:18:17;99479.72;;;9.66;86.42
21594;BME280;10959;51.328;7.322;2023-02-03T06:20:45;99482.47;;;9.63;86.39
21594;BME280;10959;51.328;7.322;2023-02-03T06:23:12;99481.66;;;9.61;86.36
21594;BME280;10959;51.328;7.322;2023-02-03T06:25:38;99476.94;;;9.42;86.88
21594;BME280;10959;51.328;7.322;2023-02-03T06:28:04;99472.06;;;9.54;87.19
21594;BME280;10959;51.328;7.322;2023-02-03T06:30:31;99459.66;;;9.49;86.81
21594;BME280;10959;51.328;7.322;2023-02-03T06:32:57;99461.72;;;9.41;86.07
21594;BME280;10959;51.328;7.322;2023-02-03T06:35:24;99459.09;;;9.40;86.90
21594;BME280;10959;51.328;7.322;2023-02-03T06:37:52;99469.09;;;9.36;86.51
21594;BME280;10959;51.328;7.322;2023-02-03T06:40:18;99468.06;;;9.40;86.88
21594;BME280;10959;51.328;7.322;2023-02-03T06:42:45;99487.28;;;9.28;87.15
21594;BME280;10959;51.328;7.322;2023-02-03T06:45:12;99480.91;;;9.30;87.52
21594;BME280;10959;51.328;7.322;2023-02-03T06:47:39;99493.97;;;9.41;87.00
21594;BME280;10959;51.328;7.322;2023-02-03T06:50:07;99472.47;;;9.41;87.10
21594;BME280;10959;51.328;7.322;2023-02-03T06:52:34;99484.78;;;9.48;86.58
21594;BME280;10959;51.328;7.322;2023-02-03T06:55:02;99488.50;;;9.44;85.97
21594;BME280;10959;51.328;7.322;2023-02-03T06:57:28;99492.31;;;9.37;87.34
21594;BME280;10959;51.328;7.322;2023-02-03T06:59:55;99478.53;;;9.48;87.12
21594;BME280;10959;51.328;7.322;2023-02-03T07:02:21;99479.28;;;9.51;86.95
21594;BME280;10959;51.328;7.322;2023-02-03T07:04:48;99471.72;;;9.63;86.96
21594;BME280;10959;51.328;7.322;2023-02-03T07:07:15;99478.75;;;9.67;86.47
21594;BME280;10959;51.328;7.322;2023-02-03T07:09:42;99480.94;;;9.56;86.33
21594;BME280;10959;51.328;7.322;2023-02-03T07:12:10;99495.97;;;9.36;86.88
21594;BME280;10959;51.328;7.322;2023-02-03T07:14:36;99483.13;;;9.44;87.56
21594;BME280;10959;51.328;7.322;2023-02-03T07:17:04;99480.03;;;9.30;88.31
21594;BME280;10959;51.328;7.322;2023-02-03T07:19:31;99496.03;;;9.33;88.43
21594;BME280;10959;51.328;7.322;2023-02-03T07:21:57;99495.84;;;9.39;88.50
21594;BME280;10959;51.328;7.322;2023-02-03T07:24:24;99493.97;;;9.41;88.67
21594;BME280;10959;51.328;7.322;2023-02-03T07:26:51;99488.94;;;9.32;88.28
21594;BME280;10959;51.328;7.322;2023-02-03T07:29:19;99492.13;;;9.43;88.47
21594;BME280;10959;51.328;7.322;2023-02-03T07:31:45;99491.19;;;9.44;89.02
21594;BME280;10959;51.328;7.322;2023-02-03T07:34:12;99487.50;;;9.47;88.30
21594;BME280;10959;51.328;7.322;2023-02-03T07:36:38;99486.53;;;9.49;88.47
21594;BME280;10959;51.328;7.322;2023-02-03T07:39:05;99484.88;;;9.45;89.23
21594;BME280;10959;51.328;7.322;2023-02-03T07:41:32;99473.81;;;9.55;89.14
21594;BME280;10959;51.328;7.322;2023-02-03T07:43:58;99477.22;;;9.60;88.87
21594;BME280;10959;51.328;7.322;2023-02-03T07:46:26;99488.19;;;9.54;88.83
21594;BME280;10959;51.328;7.322;2023-02-03T07:48:52;99482.53;;;9.36;89.13
21594;BME280;10959;51.328;7.322;2023-02-03T07:51:19;99491.44;;;9.37;89.14
21594;BME280;10959;51.328;7.322;2023-02-03T07:53:45;99483.34;;;9.38;89.17
21594;BME280;10959;51.328;7.322;2023-02-03T07:56:12;99478.06;;;9.35;88.78
21594;BME280;10959;51.328;7.322;2023-02-03T07:58:38;99490.88;;;9.27;88.73
21594;BME280;10959;51.328;7.322;2023-02-03T08:01:09;99492.28;;;9.12;88.55
21594;BME280;10959;51.328;7.322;2023-02-03T08:03:37;99493.47;;;9.30;88.78
21594;BME280;10959;51.328;7.322;2023-02-03T08:06:04;99492.25;;;9.40;88.38
21594;BME280;10959;51.328;7.322;2023-02-03T08:08:31;99504.63;;;9.44;88.26
21594;BME280;10959;51.328;7.322;2023-02-03T08:10:57;99498.53;;;9.39;87.66
21594;BME280;10959;51.328;7.322;2023-02-03T08:13:24;99505.06;;;9.32;88.18
21594;BME280;10959;51.328;7.322;2023-02-03T08:15:50;99508.38;;;9.40;88.77
21594;BME280;10959;51.328;7.322;2023-02-03T08:18:17;99501.75;;;9.50;88.23
21594;BME280;10959;51.328;7.322;2023-02-03T08:20:46;99521.47;;;9.49;87.62
21594;BME280;10959;51.328;7.322;2023-02-03T08:23:13;99510.41;;;9.59;88.31
21594;BME280;10959;51.328;7.322;2023-02-03T08:25:39;99506.28;;;9.48;88.27
21594;BME280;10959;51.328;7.322;2023-02-03T08:28:06;99522.41;;;9.48;88.74
21594;BME280;10959;51.328;7.322;2023-02-03T08:30:32;99513.81;;;9.37;88.92
21594;BME280;10959;51.328;7.322;2023-02-03T08:32:59;99515.91;;;9.29;89.62
21594;BME280;10959;51.328;7.322;2023-02-03T08:35:25;99522.09;;;9.31;89.66
21594;BME280;10959;51.328;7.322;2023-02-03T08:37:53;99513.63;;;9.43;89.34
21594;BME280;10959;51.328;7.322;2023-02-03T08:40:20;99518.81;;;9.49;89.68
21594;BME280;10959;51.328;7.322;2023-02-03T08:42:47;99517.13;;;9.45;89.64
21594;BME280;10959;51.328;7.322;2023-02-03T08:45:13;99510.47;;;9.30;90.00
21594;BME280;10959;51.328;7.322;2023-02-03T08:47:39;99503.75;;;9.44;90.49
21594;BME280;10959;51.328;7.322;2023-02-03T08:50:07;99505.31;;;9.51;90.14
21594;BME280;10959;51.328;7.322;2023-02-03T08:52:34;99502.88;;;9.43;90.78
21594;BME280;10959;51.328;7.322;2023-02-03T08:55:02;99512.47;;;9.24;91.32
21594;BME280;10959;51.328;7.322;2023-02-03T08:57:31;99510.22;;;9.38;90.97
21594;BME280;10959;51.328;7.322;2023-02-03T08:59:58;99510.22;;;9.38;91.10
21594;BME280;10959;51.328;7.322;2023-02-03T09:02:24;99521.53;;;9.48;90.75
21594;BME280;10959;51.328;7.322;2023-02-03T09:04:51;99515.81;;;9.32;91.28
21594;BME280;10959;51.328;7.322;2023-02-03T09:07:17;99511.97;;;9.39;91.26
21594;BME280;10959;51.328;7.322;2023-02-03T09:09:44;99512.84;;;9.40;91.97
21594;BME280;10959;51.328;7.322;2023-02-03T09:12:11;99523.75;;;9.35;91.37
21594;BME280;10959;51.328;7.322;2023-02-03T09:14:38;99529.88;;;9.40;91.88
21594;BME280;10959;51.328;7.322;2023-02-03T09:17:05;99534.84;;;9.24;91.81
21594;BME280;10959;51.328;7.322;2023-02-03T09:19:32;99530.53;;;9.19;92.62
21594;BME280;10959;51.328;7.322;2023-02-03T09:21:59;99533.97;;;9.24;92.97
21594;BME280;10959;51.328;7.322;2023-02-03T09:24:25;99528.22;;;9.36;92.96
21594;BME280;10959;51.328;7.322;2023-02-03T09:26:52;99525.66;;;9.31;92.48
21594;BME280;10959;51.328;7.322;2023-02-03T09:29:20;99526.56;;;9.32;92.56
21594;BME280;10959;51.328;7.322;2023-02-03T09:31:48;99519.41;;;9.31;92.82
21594;BME280;10959;51.328;7.322;2023-02-03T09:34:16;99520.00;;;9.12;92.92
21594;BME280;10959;51.328;7.322;2023-02-03T09:36:43;99528.81;;;9.18;93.41
21594;BME280;10959;51.328;7.322;2023-02-03T09:39:09;99528.72;;;9.21;93.46
21594;BME280;10959;51.328;7.322;2023-02-03T09:41:50;99514.00;;;9.04;93.35
21594;BME280;10959;51.328;7.322;2023-02-03T09:44:29;99534.19;;;9.18;93.50
21594;BME280;10959;51.328;7.322;2023-02-03T09:47:01;99518.44;;;9.33;92.76
21594;BME280;10959;51.328;7.322;2023-02-03T09:49:36;99526.84;;;9.23;93.21
21594;BME280;10959;51.328;7.322;2023-02-03T09:52:08;99529.53;;;9.23;93.27
21594;BME280;10959;51.328;7.322;2023-02-03T09:54:41;99521.47;;;9.23;93.50
21594;BME280;10959;51.328;7.322;2023-02-03T09:57:14;99527.88;;;9.19;93.19
21594;BME280;10959;51.328;7.322;2023-02-03T09:59:44;99522.84;;;9.36;93.22
21594;BME280;10959;51.328;7.322;2023-02-03T10:02:22;99512.47;;;9.24;92.94
21594;BME280;10959;51.328;7.322;2023-02-03T10:04:56;99512.88;;;9.11;93.10
21594;BME280;10959;51.328;7.322;2023-02-03T10:07:28;99520.31;;;9.03;94.47
21594;BME280;10959;51.328;7.322;2023-02-03T10:10:01;99512.75;;;9.14;94.45
21594;BME280;10959;51.328;7.322;2023-02-03T10:13:01;99509.47;;;9.06;93.76
21594;BME280;10959;51.328;7.322;2023-02-03T10:16:02;99511.41;;;9.01;94.33
21594;BME280;10959;51.328;7.322;2023-02-03T10:18:36;99503.50;;;8.96;95.37
21594;BME280;10959;51.328;7.322;2023-02-03T10:21:12;99505.66;;;8.85;95.55
21594;BME280;10959;51.328;7.322;2023-02-03T10:23:42;99502.44;;;9.02;96.46
21594;BME280;10959;51.328;7.322;2023-02-03T10:26:14;99521.78;;;9.13;95.03
21594;BME280;10959;51.328;7.322;2023-02-03T10:28:47;99545.09;;;9.11;94.97
21594;BME280;10959;51.328;7.322;2023-02-03T10:31:19;99535.59;;;9.01;95.20
21594;BME280;10959;51.328;7.322;2023-02-03T10:33:48;99526.19;;;9.14;95.27
21594;BME280;10959;51.328;7.322;2023-02-03T10:36:20;99535.06;;;9.18;95.17
21594;BME280;10959;51.328;7.322;2023-02-03T10:38:55;99537.78;;;9.16;95.08
21594;BME280;10959;51.328;7.322;2023-02-03T10:41:25;99555.19;;;9.05;95.27
21594;BME280;10959;51.328;7.322;2023-02-03T10:43:54;99547.56;;;9.19;95.40
21594;BME280;10959;51.328;7.322;2023-02-03T10:46:26;99562.44;;;9.01;95.18
21594;BME280;10959;51.328;7.322;2023-02-03T10:48:53;99537.91;;;9.13;95.31
21594;BME280;10959;51.328;7.322;2023-02-03T10:51:22;99542.31;;;9.16;95.66
21594;BME280;10959;51.328;7.322;2023-02-03T10:53:50;99538.91;;;9.09;95.57
21594;BME280;10959;51.328;7.322;2023-02-03T10:56:20;99541.22;;;9.22;95.40
21594;BME280;10959;51.328;7.322;2023-02-03T10:58:49;99542.56;;;9.35;95.42
21594;BME280;10959;51.328;7.322;2023-02-03T11:01:19;99533.66;;;9.33;94.53
21594;BME280;10959;51.328;7.322;2023-02-03T11:03:57;99537.75;;;9.18;94.82
21594;BME280;10959;51.328;7.322;2023-02-03T11:06:25;99529.94;;;9.37;94.60
21594;BME280;10959;51.328;7.322;2023-02-03T11:08:51;99532.03;;;9.29;94.74
21594;BME280;10959;51.328;7.322;2023-02-03T11:11:23;99531.81;;;9.35;94.24
21594;BME280;10959;51.328;7.322;2023-02-03T11:13:52;99535.47;;;9.32;93.78
21594;BME280;10959;51.328;7.322;2023-02-03T11:16:19;99535.16;;;9.43;94.42
21594;BME280;10959;51.328;7.322;2023-02-03T11:18:51;99520.03;;;9.39;93.99
21594;BME280;10959;51.328;7.322;2023-02-03T11:21:21;99535.16;;;9.43;94.39
21594;BME280;10959;51.328;7.322;2023-02-03T11:23:53;99537.63;;;9.49;94.13
21594;BME280;10959;51.328;7.322;2023-02-03T11:26:22;99548.53;;;9.45;94.05
21594;BME280;10959;51.328;7.322;2023-02-03T11:28:52;99541.63;;;9.63;93.74
21594;BME280;10959;51.328;7.322;2023-02-03T11:31:22;99547.97;;;9.62;93.37
21594;BME280;10959;51.328;7.322;2023-02-03T11:33:53;99558.03;;;9.55;93.45
21594;BME280;10959;51.328;7.322;2023-02-03T11:36:24;99565.31;;;9.51;93.38
21594;BME280;10959;51.328;7.322;2023-02-03T11:38:51;99559.69;;;9.59;93.77
21594;BME280;10959;51.328;7.322;2023-02-03T11:41:36;99561.91;;;9.46;93.54
21594;BME280;10959;51.328;7.322;2023-02-03T11:44:09;99570.63;;;9.55;93.15
21594;BME280;10959;51.328;7.322;2023-02-03T11:46:36;99565.25;;;9.55;93.81
21594;BME280;10959;51.328;7.322;2023-02-03T11:49:11;99568.44;;;9.39;93.38
21594;BME280;10959;51.328;7.322;2023-02-03T11:51:52;99564.19;;;9.32;94.46
21594;BME280;10959;51.328;7.322;2023-02-03T11:54:29;99545.63;;;9.51;94.07
21594;BME280;10959;51.328;7.322;2023-02-03T11:57:11;99549.72;;;9.36;94.03
21594;BME280;10959;51.328;7.322;2023-02-03T11:59:50;99552.19;;;9.42;94.13
21594;BME280;10959;51.328;7.322;2023-02-03T12:02:44;99553.00;;;9.44;93.81
21594;BME280;10959;51.328;7.322;2023-02-03T12:05:34;99552.50;;;9.60;93.62
21594;BME280;10959;51.328;7.322;2023-02-03T12:08:15;99556.22;;;9.56;93.09
21594;BME280;10959;51.328;7.322;2023-02-03T12:10:55;99542.94;;;9.51;94.08
21594;BME280;10959;51.328;7.322;2023-02-03T12:13:39;99540.94;;;9.58;93.11
21594;BME280;10959;51.328;7.322;2023-02-03T12:16:20;99532.97;;;9.55;93.92
21594;BME280;10959;51.328;7.322;2023-02-03T12:19:00;99541.75;;;9.60;94.32
21594;BME280;10959;51.328;7.322;2023-02-03T12:21:42;99538.13;;;9.61;93.36
21594;BME280;10959;51.328;7.322;2023-02-03T12:24:22;99549.09;;;9.55;93.36
21594;BME280;10959;51.328;7.322;2023-02-03T12:26:57;99554.66;;;9.48;94.04
21594;BME280;10959;51.328;7.322;2023-02-03T12:29:29;99560.97;;;9.74;93.40
21594;BME280;10959;51.328;7.322;2023-02-03T12:32:05;99558.00;;;9.57;93.45
21594;BME280;10959;51.328;7.322;2023-02-03T12:34:37;99555.59;;;9.74;93.43
21594;BME280;10959;51.328;7.322;2023-02-03T12:37:07;99553.53;;;9.82;93.03
21594;BME280;10959;51.328;7.322;2023-02-03T12:39:40;99550.84;;;9.82;92.76
21594;BME280;10959;51.328;7.322;2023-02-03T12:42:14;99557.38;;;9.75;92.90
21594;BME280;10959;51.328;7.322;2023-02-03T12:44:45;99551.25;;;9.70;93.09
21594;BME280;10959;51.328;7.322;2023-02-03T12:47:17;99548.94;;;9.86;92.98
21594;BME280;10959;51.328;7.322;2023-02-03T12:49:50;99541.63;;;9.90;92.82
21594;BME280;10959;51.328;7.322;2023-02-03T12:52:22;99549.06;;;9.81;92.78
21594;BME280;10959;51.328;7.322;2023-02-03T12:55:04;99556.16;;;9.84;92.80
21594;BME280;10959;51.328;7.322;2023-02-03T12:57:37;99560.16;;;9.99;92.68
21594;BME280;10959;51.328;7.322;2023-02-03T13:00:17;99558.91;;;9.82;92.36
21594;BME280;10959;51.328;7.322;2023-02-03T13:02:58;99550.56;;;9.65;93.76
21594;BME280;10959;51.328;7.322;2023-02-03T13:05:32;99553.94;;;9.70;93.55
21594;BME280;10959;51.328;7.322;2023-02-03T13:08:11;99544.03;;;9.72;93.42
21594;BME280;10959;51.328;7.322;2023-02-03T13:10:44;99558.81;;;9.85;93.31
21594;BME280;10959;51.328;7.322;2023-02-03T13:13:16;99560.47;;;9.90;93.39
21594;BME280;10959;51.328;7.322;2023-02-03T13:15:47;99559.69;;;9.86;94.10
21594;BME280;10959;51.328;7.322;2023-02-03T13:18:21;99558.81;;;9.85;93.80
21594;BME280;10959;51.328;7.322;2023-02-03T13:20:51;99560.22;;;9.96;94.18
21594;BME280;10959;51.328;7.322;2023-02-03T13:23:18;99556.72;;;9.94;94.07
21594;BME280;10959;51.328;7.322;2023-02-03T13:26:05;99566.81;;;9.87;94.14
21594;BME280;10959;51.328;7.322;2023-02-03T13:28:46;99571.22;;;9.90;94.00